sensor_id;sensor_type;location;lat;lon;timestamp;pressure;altitude;pressure_sealevel;temperature;humidity
68145;BME280;55400;51.824;-0.196;2024-02-23T00:00:07;97636.05;;;4.04;79.48
68145;BME280;55400;51.824;-0.196;2024-02-23T00:08:07;97626.47;;;4.06;79.87
68145;BME280;55400;51.824;-0.196;2024-02-23T00:12:06;97627.38;;;3.95;79.77
68145;BME280;55400;51.824;-0.196;2024-02-23T00:16:07;97627.38;;;3.99;79.77
68145;BME280;55400;51.824;-0.196;2024-02-23T00:20:08;97626.12000000001;;;3.94;80.00
68145;BME280;55400;51.824;-0.196;2024-02-23T00:24:07;97611.81;;;3.91;79.84
68145;BME280;55400;51.824;-0.196;2024-02-23T00:32:07;97610.6;;;3.85;79.57
68145;BME280;55400;51.824;-0.196;2024-02-23T00:36:07;97617.7;;;3.90;79.69
68145;BME280;55400;51.824;-0.196;2024-02-23T00:40:07;97617.7;;;3.89;79.99
68145;BME280;55400;51.824;-0.196;2024-02-23T00:48:07;97609.17;;;3.84;79.91
68145;BME280;55400;51.824;-0.196;2024-02-23T00:52:07;97606.67;;;3.82;79.84
68145;BME280;55400;51.824;-0.196;2024-02-23T00:56:07;97602.98;;;3.84;79.73
68145;BME280;55400;51.824;-0.196;2024-02-23T01:00:07;97596.72;;;3.76;79.70
68145;BME280;55400;51.824;-0.196;2024-02-23T01:04:07;97596.72;;;3.75;79.92
68145;BME280;55400;51.824;-0.196;2024-02-23T01:08:07;97592.88;;;3.80;79.99
68145;BME280;55400;51.824;-0.196;2024-02-23T01:12:07;97582.47;;;3.83;80.07
68145;BME280;55400;51.824;-0.196;2024-02-23T01:16:07;97578.34;;;3.82;79.72
68145;BME280;55400;51.824;-0.196;2024-02-23T01:20:07;97570.47;;;3.78;79.73
68145;BME280;55400;51.824;-0.196;2024-02-23T01:24:07;97563.09;;;3.75;79.59
68145;BME280;55400;51.824;-0.196;2024-02-23T01:28:07;97553.98;;;3.78;79.86
68145;BME280;55400;51.824;-0.196;2024-02-23T01:32:07;97547.87;;;3.84;79.96
68145;BME280;55400;51.824;-0.196;2024-02-23T01:40:07;97542.85;;;3.86;79.58
68145;BME280;55400;51.824;-0.196;2024-02-23T01:44:07;97540.47;;;3.84;79.92
68145;BME280;55400;51.824;-0.196;2024-02-23T01:48:07;97545.37;;;3.88;79.51
68145;BME280;55400;51.824;-0.196;2024-02-23T01:52:07;97540.58;;;3.93;79.88
68145;BME280;55400;51.824;-0.196;2024-02-23T01:56:07;97530.07;;;3.87;79.88
68145;BME280;55400;51.824;-0.196;2024-02-23T02:00:07;97525.2;;;3.86;79.70
68145;BME280;55400;51.824;-0.196;2024-02-23T02:08:07;97512.62000000001;;;3.88;79.88
68145;BME280;55400;51.824;-0.196;2024-02-23T02:12:07;97506.26999999999;;;3.90;79.90
68145;BME280;55400;51.824;-0.196;2024-02-23T02:16:07;97506.26999999999;;;3.95;80.08
68145;BME280;55400;51.824;-0.196;2024-02-23T02:20:07;97507.15;;;4.00;80.27
68145;BME280;55400;51.824;-0.196;2024-02-23T02:24:07;97502.53;;;4.02;80.19
68145;BME280;55400;51.824;-0.196;2024-02-23T02:28:07;97501.81999999999;;;4.05;80.25
68145;BME280;55400;51.824;-0.196;2024-02-23T02:32:07;97495.74;;;4.13;80.61
68145;BME280;55400;51.824;-0.196;2024-02-23T02:36:07;97489.51;;;4.14;80.44
68145;BME280;55400;51.824;-0.196;2024-02-23T02:40:07;97494.45;;;4.17;80.31
68145;BME280;55400;51.824;-0.196;2024-02-23T02:48:07;97453.14;;;4.20;80.23
68145;BME280;55400;51.824;-0.196;2024-02-23T02:52:07;97453.14;;;4.14;80.24
68145;BME280;55400;51.824;-0.196;2024-02-23T02:56:07;97435.51999999999;;;4.13;80.40
68145;BME280;55400;51.824;-0.196;2024-02-23T03:00:09;97431.39;;;4.14;80.66
68145;BME280;55400;51.824;-0.196;2024-02-23T03:12:07;97419.22;;;4.19;81.04
68145;BME280;55400;51.824;-0.196;2024-02-23T03:16:14;97413.17;;;4.21;81.10
68145;BME280;55400;51.824;-0.196;2024-02-23T03:20:07;97413.17;;;4.22;81.19
68145;BME280;55400;51.824;-0.196;2024-02-23T03:24:07;97413.87;;;4.27;81.41
68145;BME280;55400;51.824;-0.196;2024-02-23T03:28:07;97401.0;;;4.31;81.39
68145;BME280;55400;51.824;-0.196;2024-02-23T03:32:07;97386.39;;;4.37;81.37
68145;BME280;55400;51.824;-0.196;2024-02-23T03:36:07;97386.39;;;4.42;81.45
68145;BME280;55400;51.824;-0.196;2024-02-23T03:40:08;97379.71;;;4.45;81.70
68145;BME280;55400;51.824;-0.196;2024-02-23T03:44:07;97375.08;;;4.49;82.07
68145;BME280;55400;51.824;-0.196;2024-02-23T03:48:07;97381.34;;;4.51;82.48
68145;BME280;55400;51.824;-0.196;2024-02-23T03:52:07;97384.17;;;4.54;82.60
68145;BME280;55400;51.824;-0.196;2024-02-23T03:56:07;97378.39;;;4.59;82.96
68145;BME280;55400;51.824;-0.196;2024-02-23T04:04:07;97381.0;;;4.62;83.90
68145;BME280;55400;51.824;-0.196;2024-02-23T04:08:07;97378.81;;;4.65;84.16
68145;BME280;55400;51.824;-0.196;2024-02-23T04:12:07;97391.41;;;4.73;84.15
68145;BME280;55400;51.824;-0.196;2024-02-23T04:16:07;97391.41;;;4.74;82.73
68145;BME280;55400;51.824;-0.196;2024-02-23T04:20:08;97393.08;;;4.68;82.18
68145;BME280;55400;51.824;-0.196;2024-02-23T04:28:07;97393.98999999999;;;4.70;82.42
68145;BME280;55400;51.824;-0.196;2024-02-23T04:32:07;97393.98999999999;;;4.65;82.04
68145;BME280;55400;51.824;-0.196;2024-02-23T04:36:07;97388.62000000001;;;4.55;82.09
68145;BME280;55400;51.824;-0.196;2024-02-23T04:40:07;97384.77;;;4.58;82.88
68145;BME280;55400;51.824;-0.196;2024-02-23T04:44:07;97387.44;;;4.55;82.50
68145;BME280;55400;51.824;-0.196;2024-02-23T04:48:07;97390.11;;;4.51;82.69
68145;BME280;55400;51.824;-0.196;2024-02-23T04:52:07;97390.94;;;4.49;82.59
68145;BME280;55400;51.824;-0.196;2024-02-23T04:56:07;97391.13;;;4.43;82.57
68145;BME280;55400;51.824;-0.196;2024-02-23T05:00:08;97405.31;;;4.42;82.84
68145;BME280;55400;51.824;-0.196;2024-02-23T05:04:07;97405.31;;;4.35;82.84
68145;BME280;55400;51.824;-0.196;2024-02-23T05:08:07;97407.54;;;4.38;83.67
68145;BME280;55400;51.824;-0.196;2024-02-23T05:12:08;97410.41;;;4.42;83.42
68145;BME280;55400;51.824;-0.196;2024-02-23T05:16:07;97400.42;;;4.47;83.47
68145;BME280;55400;51.824;-0.196;2024-02-23T05:20:08;97406.81;;;4.48;83.17
68145;BME280;55400;51.824;-0.196;2024-02-23T05:24:07;97407.31;;;4.50;83.17
68145;BME280;55400;51.824;-0.196;2024-02-23T05:28:07;97406.62;;;4.45;83.33
68145;BME280;55400;51.824;-0.196;2024-02-23T05:32:09;97414.65;;;4.47;83.66
68145;BME280;55400;51.824;-0.196;2024-02-23T05:36:08;97414.26;;;4.50;83.34
68145;BME280;55400;51.824;-0.196;2024-02-23T05:44:07;97435.1;;;4.52;82.98
68145;BME280;55400;51.824;-0.196;2024-02-23T05:48:07;97435.1;;;4.43;82.90
68145;BME280;55400;51.824;-0.196;2024-02-23T05:55:57;97454.47;;;4.47;83.00
68145;BME280;55400;51.824;-0.196;2024-02-23T05:57:16;97450.64;;;4.37;83.00
68145;BME280;55400;51.824;-0.196;2024-02-23T06:01:17;97450.64;;;4.32;83.08
68145;BME280;55400;51.824;-0.196;2024-02-23T06:05:16;97457.54;;;4.30;83.12
68145;BME280;55400;51.824;-0.196;2024-02-23T06:09:19;97457.54;;;4.26;83.12
68145;BME280;55400;51.824;-0.196;2024-02-23T06:13:16;97474.14;;;4.22;83.13
68145;BME280;55400;51.824;-0.196;2024-02-23T06:17:17;97476.09999999999;;;4.28;83.30
68145;BME280;55400;51.824;-0.196;2024-02-23T06:21:17;97486.58;;;4.27;83.22
68145;BME280;55400;51.824;-0.196;2024-02-23T06:25:17;97492.61;;;4.32;83.04
68145;BME280;55400;51.824;-0.196;2024-02-23T06:29:16;97481.58;;;4.28;82.91
68145;BME280;55400;51.824;-0.196;2024-02-23T06:33:17;97482.5;;;4.27;82.62
68145;BME280;55400;51.824;-0.196;2024-02-23T06:37:17;97482.5;;;4.25;82.62
68145;BME280;55400;51.824;-0.196;2024-02-23T06:41:17;97488.11;;;4.23;82.71
68145;BME280;55400;51.824;-0.196;2024-02-23T06:49:17;97510.85;;;4.24;82.61
68145;BME280;55400;51.824;-0.196;2024-02-23T06:53:17;97510.85;;;4.21;82.45
68145;BME280;55400;51.824;-0.196;2024-02-23T06:57:17;97511.39;;;4.19;81.94
68145;BME280;55400;51.824;-0.196;2024-02-23T07:01:17;97516.04999999999;;;4.18;82.26
68145;BME280;55400;51.824;-0.196;2024-02-23T07:05:17;97511.46;;;4.17;82.45
68145;BME280;55400;51.824;-0.196;2024-02-23T07:09:17;97511.46;;;4.16;82.15
68145;BME280;55400;51.824;-0.196;2024-02-23T07:13:17;97525.27;;;4.20;82.20
68145;BME280;55400;51.824;-0.196;2024-02-23T07:17:17;97525.27;;;4.15;82.07
68145;BME280;55400;51.824;-0.196;2024-02-23T07:21:17;97528.04;;;4.14;82.13
68145;BME280;55400;51.824;-0.196;2024-02-23T07:25:17;97534.75;;;4.11;82.00
68145;BME280;55400;51.824;-0.196;2024-02-23T07:29:17;97539.28;;;4.10;82.32
68145;BME280;55400;51.824;-0.196;2024-02-23T07:37:17;97545.31;;;4.09;82.39
68145;BME280;55400;51.824;-0.196;2024-02-23T07:41:17;97547.69;;;4.03;82.49
68145;BME280;55400;51.824;-0.196;2024-02-23T07:45:17;97559.48;;;4.06;82.88
68145;BME280;55400;51.824;-0.196;2024-02-23T07:49:17;97559.48;;;4.07;83.04
68145;BME280;55400;51.824;-0.196;2024-02-23T07:53:17;97553.83;;;4.10;83.00
68145;BME280;55400;51.824;-0.196;2024-02-23T07:57:17;97560.38;;;4.13;83.28
68145;BME280;55400;51.824;-0.196;2024-02-23T08:01:25;97566.56;;;4.12;83.12
68145;BME280;55400;51.824;-0.196;2024-02-23T08:05:17;97573.47;;;4.11;83.12
68145;BME280;55400;51.824;-0.196;2024-02-23T08:09:17;97581.76;;;4.13;83.28
68145;BME280;55400;51.824;-0.196;2024-02-23T08:13:17;97586.13;;;4.17;83.48
68145;BME280;55400;51.824;-0.196;2024-02-23T08:17:17;97586.13;;;4.21;83.48
68145;BME280;55400;51.824;-0.196;2024-02-23T08:21:17;97602.08;;;4.29;83.42
68145;BME280;55400;51.824;-0.196;2024-02-23T08:25:17;97608.33;;;4.24;82.56
68145;BME280;55400;51.824;-0.196;2024-02-23T08:29:17;97608.33;;;4.31;83.64
68145;BME280;55400;51.824;-0.196;2024-02-23T08:33:17;97608.87;;;4.28;82.46
68145;BME280;55400;51.824;-0.196;2024-02-23T08:37:17;97610.56999999999;;;4.33;82.52
68145;BME280;55400;51.824;-0.196;2024-02-23T08:45:19;97602.48;;;4.38;83.13
68145;BME280;55400;51.824;-0.196;2024-02-23T08:49:17;97607.58;;;4.45;83.02
68145;BME280;55400;51.824;-0.196;2024-02-23T08:53:17;97607.58;;;4.51;83.02
68145;BME280;55400;51.824;-0.196;2024-02-23T08:57:17;97618.3;;;4.54;82.53
68145;BME280;55400;51.824;-0.196;2024-02-23T09:01:17;97623.61;;;4.58;83.02
68145;BME280;55400;51.824;-0.196;2024-02-23T09:06:17;97626.48000000001;;;4.67;unavailable
68145;BME280;55400;51.824;-0.196;2024-02-23T09:09:17;97631.48;;;4.73;82.88
68145;BME280;55400;51.824;-0.196;2024-02-23T09:13:17;97631.48;;;4.79;82.88
68145;BME280;55400;51.824;-0.196;2024-02-23T09:17:29;97636.99;;;4.86;82.18
68145;BME280;55400;51.824;-0.196;2024-02-23T09:21:17;97636.99;;;4.91;82.18
68145;BME280;55400;51.824;-0.196;2024-02-23T09:25:18;97642.11;;;4.90;81.84
68145;BME280;55400;51.824;-0.196;2024-02-23T09:29:17;97642.11;;;5.01;82.51
68145;BME280;55400;51.824;-0.196;2024-02-23T09:37:17;97638.83;;;5.03;81.75
68145;BME280;55400;51.824;-0.196;2024-02-23T09:41:18;97648.61;;;5.06;81.86
68145;BME280;55400;51.824;-0.196;2024-02-23T09:45:17;97645.04;;;5.11;81.65
68145;BME280;55400;51.824;-0.196;2024-02-23T09:49:17;97640.06000000001;;;5.12;81.79
68145;BME280;55400;51.824;-0.196;2024-02-23T09:53:17;97641.09;;;5.18;81.73
68145;BME280;55400;51.824;-0.196;2024-02-23T09:57:17;97645.79;;;5.25;81.61
68145;BME280;55400;51.824;-0.196;2024-02-23T10:01:18;97643.97;;;5.34;81.71
68145;BME280;55400;51.824;-0.196;2024-02-23T10:05:17;97643.97;;;5.45;81.47
68145;BME280;55400;51.824;-0.196;2024-02-23T10:09:17;97642.81999999999;;;5.51;81.11
68145;BME280;55400;51.824;-0.196;2024-02-23T10:13:18;97650.51;;;5.58;81.11
68145;BME280;55400;51.824;-0.196;2024-02-23T10:17:17;97650.51;;;5.65;81.04
68145;BME280;55400;51.824;-0.196;2024-02-23T10:21:17;97656.11;;;5.69;81.14
68145;BME280;55400;51.824;-0.196;2024-02-23T10:25:17;97659.65;;;5.81;80.88
68145;BME280;55400;51.824;-0.196;2024-02-23T10:29:17;97661.65999999999;;;5.72;80.42
68145;BME280;55400;51.824;-0.196;2024-02-23T10:33:17;97674.49;;;5.77;80.44
68145;BME280;55400;51.824;-0.196;2024-02-23T10:37:17;97674.49;;;5.82;80.44
68145;BME280;55400;51.824;-0.196;2024-02-23T10:41:17;97665.08;;;5.88;80.59
68145;BME280;55400;51.824;-0.196;2024-02-23T10:45:18;97664.42;;;5.93;80.70
68145;BME280;55400;51.824;-0.196;2024-02-23T10:49:17;97668.05;;;5.95;79.73
68145;BME280;55400;51.824;-0.196;2024-02-23T10:53:17;97671.37;;;6.00;79.75
68145;BME280;55400;51.824;-0.196;2024-02-23T10:57:17;97674.82;;;6.09;79.83
68145;BME280;55400;51.824;-0.196;2024-02-23T11:01:17;97675.36;;;6.18;79.95
68145;BME280;55400;51.824;-0.196;2024-02-23T11:05:17;97679.49;;;6.23;79.46
68145;BME280;55400;51.824;-0.196;2024-02-23T11:11:06;97680.97;;;6.37;79.20
68145;BME280;55400;51.824;-0.196;2024-02-23T11:13:17;97680.97;;;6.51;79.20
68145;BME280;55400;51.824;-0.196;2024-02-23T11:17:18;97682.78;;;6.47;78.18
68145;BME280;55400;51.824;-0.196;2024-02-23T11:21:17;97677.86;;;6.58;78.07
68145;BME280;55400;51.824;-0.196;2024-02-23T11:25:18;97680.17;;;6.67;77.97
68145;BME280;55400;51.824;-0.196;2024-02-23T11:29:17;97680.17;;;6.65;77.97
68145;BME280;55400;51.824;-0.196;2024-02-23T11:33:25;97677.14;;;6.81;77.18
68145;BME280;55400;51.824;-0.196;2024-02-23T11:37:18;97678.03;;;6.93;77.83
68145;BME280;55400;51.824;-0.196;2024-02-23T11:41:17;97680.97;;;6.99;77.06
68145;BME280;55400;51.824;-0.196;2024-02-23T11:45:18;97684.69;;;7.09;76.19
68145;BME280;55400;51.824;-0.196;2024-02-23T11:49:18;97679.66;;;7.20;75.40
68145;BME280;55400;51.824;-0.196;2024-02-23T11:53:17;97679.66;;;7.36;75.40
68145;BME280;55400;51.824;-0.196;2024-02-23T11:57:18;97678.94;;;7.51;75.76
68145;BME280;55400;51.824;-0.196;2024-02-23T12:00:42;97677.62;;;7.51;74.53
68145;BME280;55400;51.824;-0.196;2024-02-23T12:04:19;97676.59;;;7.49;unavailable
68145;BME280;55400;51.824;-0.196;2024-02-23T12:05:17;97684.09;;;7.48;73.73
68145;BME280;55400;51.824;-0.196;2024-02-23T12:09:17;97674.75;;;7.26;73.02
68145;BME280;55400;51.824;-0.196;2024-02-23T12:13:18;97674.75;;;7.22;73.02
68145;BME280;55400;51.824;-0.196;2024-02-23T12:17:17;97681.67;;;7.11;73.29
68145;BME280;55400;51.824;-0.196;2024-02-23T12:21:18;97674.2;;;7.12;73.33
68145;BME280;55400;51.824;-0.196;2024-02-23T12:25:17;97670.51;;;7.05;74.50
68145;BME280;55400;51.824;-0.196;2024-02-23T12:29:18;97671.41;;;7.02;72.34
68145;BME280;55400;51.824;-0.196;2024-02-23T12:33:18;97674.06999999999;;;7.06;71.74
68145;BME280;55400;51.824;-0.196;2024-02-23T12:37:19;97672.04000000001;;;7.11;73.28
68145;BME280;55400;51.824;-0.196;2024-02-23T12:41:18;97660.25;;;7.16;73.24
68145;BME280;55400;51.824;-0.196;2024-02-23T12:45:18;97658.98;;;7.24;73.24
68145;BME280;55400;51.824;-0.196;2024-02-23T12:49:18;97658.98;;;7.25;73.66
68145;BME280;55400;51.824;-0.196;2024-02-23T12:57:18;97659.36;;;7.42;73.66
68145;BME280;55400;51.824;-0.196;2024-02-23T13:01:18;97660.04000000001;;;7.49;72.11
68145;BME280;55400;51.824;-0.196;2024-02-23T13:05:34;97658.08;;;7.53;71.32
68145;BME280;55400;51.824;-0.196;2024-02-23T13:07:31;97658.08;;;7.53;71.32
68145;BME280;55400;51.824;-0.196;2024-02-23T13:10:49;97660.74;;;7.50;70.66
68145;BME280;55400;51.824;-0.196;2024-02-23T13:13:21;97659.43;;;7.47;69.68
68145;BME280;55400;51.824;-0.196;2024-02-23T13:17:18;97659.11;;;7.48;70.32
68145;BME280;55400;51.824;-0.196;2024-02-23T13:21:18;97655.48999999999;;;7.56;70.96
68145;BME280;55400;51.824;-0.196;2024-02-23T13:25:18;97648.91;;;7.69;70.91
68145;BME280;55400;51.824;-0.196;2024-02-23T13:29:18;97648.91;;;7.78;70.91
68145;BME280;55400;51.824;-0.196;2024-02-23T13:33:18;97648.13;;;7.88;70.63
68145;BME280;55400;51.824;-0.196;2024-02-23T13:37:18;97653.09;;;8.06;69.73
68145;BME280;55400;51.824;-0.196;2024-02-23T13:41:18;97643.26999999999;;;8.04;70.48
68145;BME280;55400;51.824;-0.196;2024-02-23T13:45:18;97643.26999999999;;;8.22;69.50
68145;BME280;55400;51.824;-0.196;2024-02-23T13:49:18;97658.0;;;8.14;69.76
68145;BME280;55400;51.824;-0.196;2024-02-23T13:53:18;97660.65999999999;;;8.01;69.14
68145;BME280;55400;51.824;-0.196;2024-02-23T13:57:18;97658.33;;;7.80;69.85
68145;BME280;55400;51.824;-0.196;2024-02-23T14:01:18;97658.33;;;7.62;68.63
68145;BME280;55400;51.824;-0.196;2024-02-23T14:05:18;97664.95;;;7.54;67.35
68145;BME280;55400;51.824;-0.196;2024-02-23T14:09:18;97674.1;;;7.45;67.72
68145;BME280;55400;51.824;-0.196;2024-02-23T14:13:18;97676.67;;;7.33;67.95
68145;BME280;55400;51.824;-0.196;2024-02-23T14:17:18;97676.67;;;7.26;68.22
68145;BME280;55400;51.824;-0.196;2024-02-23T14:21:18;97679.58;;;7.16;69.74
68145;BME280;55400;51.824;-0.196;2024-02-23T14:25:18;97695.75;;;6.93;70.79
68145;BME280;55400;51.824;-0.196;2024-02-23T14:29:18;97700.05;;;6.74;71.54
68145;BME280;55400;51.824;-0.196;2024-02-23T14:33:18;97678.8;;;6.57;72.43
68145;BME280;55400;51.824;-0.196;2024-02-23T14:37:18;97669.3;;;6.45;75.04
68145;BME280;55400;51.824;-0.196;2024-02-23T14:41:18;97669.3;;;6.42;76.72
68145;BME280;55400;51.824;-0.196;2024-02-23T14:45:18;97672.43999999999;;;6.45;78.76
68145;BME280;55400;51.824;-0.196;2024-02-23T14:49:18;97674.44;;;6.54;78.72
68145;BME280;55400;51.824;-0.196;2024-02-23T14:53:18;97674.44;;;6.58;79.35
68145;BME280;55400;51.824;-0.196;2024-02-23T14:57:18;97670.15;;;6.62;79.87
68145;BME280;55400;51.824;-0.196;2024-02-23T15:01:18;97672.28;;;6.69;80.85
68145;BME280;55400;51.824;-0.196;2024-02-23T15:05:18;97672.28;;;6.81;80.85
68145;BME280;55400;51.824;-0.196;2024-02-23T15:09:18;97683.42;;;6.93;80.07
68145;BME280;55400;51.824;-0.196;2024-02-23T15:13:18;97683.42;;;6.98;79.25
68145;BME280;55400;51.824;-0.196;2024-02-23T15:17:18;97682.34;;;7.03;77.14
68145;BME280;55400;51.824;-0.196;2024-02-23T15:21:18;97692.94;;;7.05;77.14
68145;BME280;55400;51.824;-0.196;2024-02-23T15:25:18;97692.94;;;6.96;75.72
68145;BME280;55400;51.824;-0.196;2024-02-23T15:29:18;97690.23;;;6.88;75.51
68145;BME280;55400;51.824;-0.196;2024-02-23T15:33:18;97693.86;;;6.80;75.63
68145;BME280;55400;51.824;-0.196;2024-02-23T15:37:18;97695.29;;;6.73;74.91
68145;BME280;55400;51.824;-0.196;2024-02-23T15:41:18;97695.29;;;6.71;76.00
68145;BME280;55400;51.824;-0.196;2024-02-23T15:45:18;97696.19;;;6.72;76.20
68145;BME280;55400;51.824;-0.196;2024-02-23T15:49:18;97697.99;;;6.73;77.44
68145;BME280;55400;51.824;-0.196;2024-02-23T15:53:18;97697.99;;;6.65;77.44
68145;BME280;55400;51.824;-0.196;2024-02-23T15:57:18;97693.29000000001;;;6.63;76.65
68145;BME280;55400;51.824;-0.196;2024-02-23T16:01:19;97693.29000000001;;;6.54;76.65
68145;BME280;55400;51.824;-0.196;2024-02-23T16:05:18;97674.67;;;6.51;75.91
68145;BME280;55400;51.824;-0.196;2024-02-23T16:09:18;97674.67;;;6.45;76.67
68145;BME280;55400;51.824;-0.196;2024-02-23T16:13:18;97677.36;;;6.40;76.51
68145;BME280;55400;51.824;-0.196;2024-02-23T16:17:18;97701.67;;;6.33;76.45
68145;BME280;55400;51.824;-0.196;2024-02-23T16:21:18;97713.42;;;6.28;76.14
68145;BME280;55400;51.824;-0.196;2024-02-23T16:25:18;97718.14;;;6.26;76.74
68145;BME280;55400;51.824;-0.196;2024-02-23T16:29:18;97728.18;;;6.24;77.26
68145;BME280;55400;51.824;-0.196;2024-02-23T16:33:18;97728.18;;;6.17;77.26
68145;BME280;55400;51.824;-0.196;2024-02-23T16:37:18;97738.79;;;6.14;77.51
68145;BME280;55400;51.824;-0.196;2024-02-23T16:41:18;97738.9;;;6.12;78.11
68145;BME280;55400;51.824;-0.196;2024-02-23T16:45:18;97742.69;;;6.10;79.32
68145;BME280;55400;51.824;-0.196;2024-02-23T16:49:18;97742.69;;;6.13;79.32
68145;BME280;55400;51.824;-0.196;2024-02-23T16:53:18;97760.83;;;6.15;79.98
68145;BME280;55400;51.824;-0.196;2024-02-23T16:57:18;97759.75;;;6.12;79.98
68145;BME280;55400;51.824;-0.196;2024-02-23T17:01:22;97768.12999999999;;;6.10;79.57
68145;BME280;55400;51.824;-0.196;2024-02-23T17:05:18;97768.12999999999;;;6.08;79.57
68145;BME280;55400;51.824;-0.196;2024-02-23T17:09:18;97765.81;;;6.06;80.79
68145;BME280;55400;51.824;-0.196;2024-02-23T17:17:18;97770.9;;;6.05;81.57
68145;BME280;55400;51.824;-0.196;2024-02-23T17:21:18;97772.70999999999;;;6.06;82.01
68145;BME280;55400;51.824;-0.196;2024-02-23T17:25:18;97773.94;;;6.04;82.00
68145;BME280;55400;51.824;-0.196;2024-02-23T17:29:18;97784.27;;;5.99;81.68
68145;BME280;55400;51.824;-0.196;2024-02-23T17:41:18;97787.95;;;6.01;82.55
68145;BME280;55400;51.824;-0.196;2024-02-23T17:45:18;97794.61;;;6.00;82.73
68145;BME280;55400;51.824;-0.196;2024-02-23T17:53:18;97802.67;;;5.98;82.52
68145;BME280;55400;51.824;-0.196;2024-02-23T17:57:18;97812.09;;;5.95;81.95
68145;BME280;55400;51.824;-0.196;2024-02-23T18:09:19;97829.71;;;5.92;82.03
68145;BME280;55400;51.824;-0.196;2024-02-23T18:17:18;97827.87;;;5.93;82.58
68145;BME280;55400;51.824;-0.196;2024-02-23T18:29:19;97851.25;;;5.92;82.64
68145;BME280;55400;51.824;-0.196;2024-02-23T18:33:18;97856.2;;;5.93;82.76
68145;BME280;55400;51.824;-0.196;2024-02-23T18:37:19;97856.2;;;5.89;82.76
68145;BME280;55400;51.824;-0.196;2024-02-23T18:45:19;97869.08;;;5.88;82.51
68145;BME280;55400;51.824;-0.196;2024-02-23T18:49:19;97870.19;;;5.86;82.87
68145;BME280;55400;51.824;-0.196;2024-02-23T18:53:19;97872.92;;;5.84;82.75
68145;BME280;55400;51.824;-0.196;2024-02-23T18:57:19;97877.25;;;5.80;82.68
68145;BME280;55400;51.824;-0.196;2024-02-23T19:01:19;97880.17;;;5.73;81.72
68145;BME280;55400;51.824;-0.196;2024-02-23T19:05:19;97880.17;;;5.69;81.08
68145;BME280;55400;51.824;-0.196;2024-02-23T19:09:19;97883.15;;;5.62;80.76
68145;BME280;55400;51.824;-0.196;2024-02-23T19:13:19;97892.58;;;5.52;80.45
68145;BME280;55400;51.824;-0.196;2024-02-23T19:17:19;97892.58;;;5.47;79.64
68145;BME280;55400;51.824;-0.196;2024-02-23T19:21:19;97900.79;;;5.38;79.25
68145;BME280;55400;51.824;-0.196;2024-02-23T19:25:19;97900.79;;;5.29;79.25
68145;BME280;55400;51.824;-0.196;2024-02-23T19:29:19;97896.44;;;5.26;79.62
68145;BME280;55400;51.824;-0.196;2024-02-23T19:37:19;97903.44;;;5.23;81.02
68145;BME280;55400;51.824;-0.196;2024-02-23T19:41:19;97915.72;;;5.22;80.19
68145;BME280;55400;51.824;-0.196;2024-02-23T19:49:19;97913.35;;;5.17;80.28
68145;BME280;55400;51.824;-0.196;2024-02-23T19:53:19;97919.01000000001;;;5.15;80.28
68145;BME280;55400;51.824;-0.196;2024-02-23T19:57:19;97919.01000000001;;;5.14;80.40
68145;BME280;55400;51.824;-0.196;2024-02-23T20:01:19;97919.45;;;5.05;80.41
68145;BME280;55400;51.824;-0.196;2024-02-23T20:05:19;97925.58;;;5.00;78.69
68145;BME280;55400;51.824;-0.196;2024-02-23T20:09:19;97925.58;;;4.87;79.29
68145;BME280;55400;51.824;-0.196;2024-02-23T20:13:19;97924.15999999999;;;4.82;78.82
68145;BME280;55400;51.824;-0.196;2024-02-23T20:17:48;97925.56;;;4.80;80.20
68145;BME280;55400;51.824;-0.196;2024-02-23T20:21:30;97928.02;;;4.78;80.15
68145;BME280;55400;51.824;-0.196;2024-02-23T20:25:19;97928.02;;;4.80;80.15
68145;BME280;55400;51.824;-0.196;2024-02-23T20:29:19;97931.03;;;4.75;79.94
68145;BME280;55400;51.824;-0.196;2024-02-23T20:33:19;97936.90000000001;;;4.69;79.63
68145;BME280;55400;51.824;-0.196;2024-02-23T20:37:19;97936.90000000001;;;4.66;79.99
68145;BME280;55400;51.824;-0.196;2024-02-23T20:41:19;97938.28;;;4.67;80.17
68145;BME280;55400;51.824;-0.196;2024-02-23T20:45:19;97939.73;;;4.66;80.96
68145;BME280;55400;51.824;-0.196;2024-02-23T20:49:19;97945.45000000001;;;4.68;81.13
68145;BME280;55400;51.824;-0.196;2024-02-23T20:53:19;97945.45000000001;;;4.67;81.16
68145;BME280;55400;51.824;-0.196;2024-02-23T20:57:19;97948.41;;;4.65;81.30
68145;BME280;55400;51.824;-0.196;2024-02-23T21:01:19;97948.1;;;4.63;82.00
68145;BME280;55400;51.824;-0.196;2024-02-23T21:05:19;97960.54000000001;;;4.62;82.00
68145;BME280;55400;51.824;-0.196;2024-02-23T21:13:19;97961.44;;;4.60;82.15
68145;BME280;55400;51.824;-0.196;2024-02-23T21:17:19;97964.29000000001;;;4.59;82.00
68145;BME280;55400;51.824;-0.196;2024-02-23T21:21:19;97972.96;;;4.57;81.89
68145;BME280;55400;51.824;-0.196;2024-02-23T21:25:19;97971.59;;;4.55;81.99
68145;BME280;55400;51.824;-0.196;2024-02-23T21:29:19;97971.59;;;4.52;81.72
68145;BME280;55400;51.824;-0.196;2024-02-23T21:33:28;97979.18;;;4.50;81.64
68145;BME280;55400;51.824;-0.196;2024-02-23T21:45:19;97997.56;;;4.52;81.55
68145;BME280;55400;51.824;-0.196;2024-02-23T21:53:19;98001.56;;;4.47;80.73
68145;BME280;55400;51.824;-0.196;2024-02-23T21:57:19;98008.54000000001;;;4.44;80.60
68145;BME280;55400;51.824;-0.196;2024-02-23T22:01:19;98005.26999999999;;;4.42;80.77
68145;BME280;55400;51.824;-0.196;2024-02-23T22:05:19;98005.26999999999;;;4.41;80.77
68145;BME280;55400;51.824;-0.196;2024-02-23T22:09:19;98010.86;;;4.36;80.71
68145;BME280;55400;51.824;-0.196;2024-02-23T22:17:19;98016.75;;;4.32;80.58
68145;BME280;55400;51.824;-0.196;2024-02-23T22:25:19;98011.7;;;4.34;80.58
68145;BME280;55400;51.824;-0.196;2024-02-23T22:29:19;98016.58;;;4.33;80.72
68145;BME280;55400;51.824;-0.196;2024-02-23T22:33:19;98016.58;;;4.26;80.28
68145;BME280;55400;51.824;-0.196;2024-02-23T22:37:19;98023.91;;;4.19;79.86
68145;BME280;55400;51.824;-0.196;2024-02-23T22:41:19;98031.19;;;4.15;80.00
68145;BME280;55400;51.824;-0.196;2024-02-23T22:45:19;98034.6;;;4.13;80.71
68145;BME280;55400;51.824;-0.196;2024-02-23T22:49:19;98034.6;;;4.09;80.49
68145;BME280;55400;51.824;-0.196;2024-02-23T22:57:19;98054.43000000001;;;4.08;80.72
68145;BME280;55400;51.824;-0.196;2024-02-23T23:01:19;98054.43000000001;;;4.04;80.36